sensor_id;sensor_type;location;lat;lon;timestamp;P1;durP1;ratioP1;P2;durP2;ratioP2
50563;SDS011;36514;52.590;21.448;2023-06-24T00:05:44;1999.90;;;996.10;;
50563;SDS011;36514;52.590;21.448;2023-06-24T00:15:47;1999.90;;;996.42;;
50563;SDS011;36514;52.590;21.448;2023-06-24T00:25:50;1999.90;;;996.87;;
50563;SDS011;36514;52.590;21.448;2023-06-24T00:35:53;1979.49;;;991.56;;
50563;SDS011;36514;52.590;21.448;2023-06-24T00:45:56;1995.46;;;992.98;;
50563;SDS011;36514;52.590;21.448;2023-06-24T00:56:00;1984.69;;;989.55;;
50563;SDS011;36514;52.590;21.448;2023-06-24T01:06:02;1978.67;;;992.40;;
50563;SDS011;36514;52.590;21.448;2023-06-24T01:16:00;1992.98;;;995.50;;
50563;SDS011;36514;52.590;21.448;2023-06-24T01:26:14;1973.76;;;995.75;;
50563;SDS011;36514;52.590;21.448;2023-06-24T01:36:11;1999.63;;;996.70;;
50563;SDS011;36514;52.590;21.448;2023-06-24T01:46:15;1978.20;;;991.04;;
50563;SDS011;36514;52.590;21.448;2023-06-24T01:56:19;1976.56;;;970.53;;
50563;SDS011;36514;52.590;21.448;2023-06-24T02:06:16;1980.15;;;937.84;;
50563;SDS011;36514;52.590;21.448;2023-06-24T02:16:22;1976.21;;;983.45;;
50563;SDS011;36514;52.590;21.448;2023-06-24T02:26:20;1983.25;;;987.25;;
50563;SDS011;36514;52.590;21.448;2023-06-24T02:36:25;1991.83;;;994.58;;
50563;SDS011;36514;52.590;21.448;2023-06-24T02:46:29;1990.45;;;999.38;;
50563;SDS011;36514;52.590;21.448;2023-06-24T02:56:34;1999.90;;;997.41;;
50563;SDS011;36514;52.590;21.448;2023-06-24T03:06:40;1999.90;;;992.67;;
50563;SDS011;36514;52.590;21.448;2023-06-24T03:16:43;1952.75;;;990.84;;
50563;SDS011;36514;52.590;21.448;2023-06-24T03:26:46;1986.37;;;995.59;;
50563;SDS011;36514;52.590;21.448;2023-06-24T03:36:50;1983.40;;;993.00;;
50563;SDS011;36514;52.590;21.448;2023-06-24T03:46:53;1972.46;;;994.72;;
50563;SDS011;36514;52.590;21.448;2023-06-24T03:56:56;1963.27;;;985.97;;
50563;SDS011;36514;52.590;21.448;2023-06-24T04:07:00;1964.30;;;992.87;;
50563;SDS011;36514;52.590;21.448;2023-06-24T04:17:04;1947.78;;;987.74;;
50563;SDS011;36514;52.590;21.448;2023-06-24T04:27:08;1894.67;;;981.78;;
50563;SDS011;36514;52.590;21.448;2023-06-24T04:37:12;1817.15;;;975.68;;
50563;SDS011;36514;52.590;21.448;2023-06-24T04:47:14;1707.15;;;978.45;;
50563;SDS011;36514;52.590;21.448;2023-06-24T07:22:38;656.17;;;616.75;;
50563;SDS011;36514;52.590;21.448;2023-06-24T07:32:46;669.30;;;626.97;;
50563;SDS011;36514;52.590;21.448;2023-06-24T07:42:55;643.27;;;604.98;;
50563;SDS011;36514;52.590;21.448;2023-06-24T08:02:34;724.76;;;676.67;;
50563;SDS011;36514;52.590;21.448;2023-06-24T08:12:32;745.75;;;693.83;;
50563;SDS011;36514;52.590;21.448;2023-06-24T08:22:30;746.01;;;694.69;;
50563;SDS011;36514;52.590;21.448;2023-06-24T08:42:07;701.73;;;654.52;;
50563;SDS011;36514;52.590;21.448;2023-06-24T09:40:14;746.37;;;693.81;;
50563;SDS011;36514;52.590;21.448;2023-06-24T10:09:25;743.71;;;691.33;;
50563;SDS011;36514;52.590;21.448;2023-06-24T10:38:59;757.17;;;704.04;;
50563;SDS011;36514;52.590;21.448;2023-06-24T10:48:53;731.98;;;681.55;;
50563;SDS011;36514;52.590;21.448;2023-06-24T11:08:26;686.18;;;641.35;;
50563;SDS011;36514;52.590;21.448;2023-06-24T11:27:58;610.76;;;573.34;;
50563;SDS011;36514;52.590;21.448;2023-06-24T11:37:57;594.94;;;559.95;;
50563;SDS011;36514;52.590;21.448;2023-06-24T12:07:48;579.20;;;546.15;;
50563;SDS011;36514;52.590;21.448;2023-06-24T12:17:45;495.94;;;469.35;;
50563;SDS011;36514;52.590;21.448;2023-06-24T12:27:41;578.18;;;544.47;;
50563;SDS011;36514;52.590;21.448;2023-06-24T12:37:37;628.29;;;589.99;;
50563;SDS011;36514;52.590;21.448;2023-06-24T12:47:35;658.33;;;617.85;;
50563;SDS011;36514;52.590;21.448;2023-06-24T12:57:34;663.37;;;623.24;;
50563;SDS011;36514;52.590;21.448;2023-06-24T13:07:31;657.90;;;617.86;;
50563;SDS011;36514;52.590;21.448;2023-06-24T13:17:29;596.68;;;561.85;;
50563;SDS011;36514;52.590;21.448;2023-06-24T13:27:30;555.46;;;523.47;;
50563;SDS011;36514;52.590;21.448;2023-06-24T13:37:32;493.47;;;467.17;;
50563;SDS011;36514;52.590;21.448;2023-06-24T13:47:30;443.38;;;420.80;;
50563;SDS011;36514;52.590;21.448;2023-06-24T14:26:46;741.73;;;691.85;;
50563;SDS011;36514;52.590;21.448;2023-06-24T14:36:45;720.44;;;671.83;;
50563;SDS011;36514;52.590;21.448;2023-06-24T15:05:35;648.71;;;609.52;;
50563;SDS011;36514;52.590;21.448;2023-06-24T15:15:28;671.57;;;629.22;;
50563;SDS011;36514;52.590;21.448;2023-06-24T15:25:24;726.90;;;680.06;;
50563;SDS011;36514;52.590;21.448;2023-06-24T15:35:21;698.83;;;654.47;;
50563;SDS011;36514;52.590;21.448;2023-06-24T15:45:19;766.29;;;711.67;;
50563;SDS011;36514;52.590;21.448;2023-06-24T15:55:14;742.71;;;693.34;;
50563;SDS011;36514;52.590;21.448;2023-06-24T16:05:12;750.56;;;698.24;;
50563;SDS011;36514;52.590;21.448;2023-06-24T16:15:09;788.82;;;733.16;;
50563;SDS011;36514;52.590;21.448;2023-06-24T16:25:10;754.39;;;701.86;;
50563;SDS011;36514;52.590;21.448;2023-06-24T16:35:07;726.35;;;677.89;;
50563;SDS011;36514;52.590;21.448;2023-06-24T16:45:06;635.92;;;597.55;;
50563;SDS011;36514;52.590;21.448;2023-06-24T17:04:45;518.32;;;490.18;;
50563;SDS011;36514;52.590;21.448;2023-06-24T17:24:17;560.60;;;529.36;;
50563;SDS011;36514;52.590;21.448;2023-06-24T18:22:28;566.44;;;533.57;;
50563;SDS011;36514;52.590;21.448;2023-06-24T18:32:23;577.16;;;542.90;;
50563;SDS011;36514;52.590;21.448;2023-06-24T18:42:18;663.75;;;620.99;;
50563;SDS011;36514;52.590;21.448;2023-06-24T20:08:59;1999.90;;;950.15;;
50563;SDS011;36514;52.590;21.448;2023-06-24T20:18:57;1835.32;;;962.27;;
50563;SDS011;36514;52.590;21.448;2023-06-24T20:28:55;1532.53;;;933.75;;
50563;SDS011;36514;52.590;21.448;2023-06-24T20:38:52;1468.42;;;951.79;;
50563;SDS011;36514;52.590;21.448;2023-06-24T20:48:49;1757.04;;;956.60;;
50563;SDS011;36514;52.590;21.448;2023-06-24T20:58:48;1999.90;;;977.06;;
50563;SDS011;36514;52.590;21.448;2023-06-24T21:08:44;1988.21;;;987.04;;
50563;SDS011;36514;52.590;21.448;2023-06-24T21:18:41;1999.90;;;988.91;;
50563;SDS011;36514;52.590;21.448;2023-06-24T21:28:42;1960.97;;;985.85;;
50563;SDS011;36514;52.590;21.448;2023-06-24T21:38:39;1939.01;;;976.31;;
50563;SDS011;36514;52.590;21.448;2023-06-24T21:48:36;1973.78;;;984.35;;
50563;SDS011;36514;52.590;21.448;2023-06-24T21:58:32;1999.90;;;989.75;;
50563;SDS011;36514;52.590;21.448;2023-06-24T22:08:36;1965.55;;;987.33;;
50563;SDS011;36514;52.590;21.448;2023-06-24T22:18:33;1968.23;;;985.30;;
50563;SDS011;36514;52.590;21.448;2023-06-24T22:28:37;1944.59;;;982.10;;
50563;SDS011;36514;52.590;21.448;2023-06-24T22:38:33;1987.11;;;989.80;;
50563;SDS011;36514;52.590;21.448;2023-06-24T22:48:29;1991.64;;;980.35;;
50563;SDS011;36514;52.590;21.448;2023-06-24T22:58:32;1692.93;;;986.91;;
50563;SDS011;36514;52.590;21.448;2023-06-24T23:08:28;1695.38;;;960.75;;
50563;SDS011;36514;52.590;21.448;2023-06-24T23:18:24;1740.02;;;949.37;;
50563;SDS011;36514;52.590;21.448;2023-06-24T23:28:21;1823.31;;;972.79;;
50563;SDS011;36514;52.590;21.448;2023-06-24T23:38:24;1918.60;;;974.36;;
50563;SDS011;36514;52.590;21.448;2023-06-24T23:48:21;1836.91;;;974.05;;
50563;SDS011;36514;52.590;21.448;2023-06-24T23:58:18;1680.09;;;975.51;;
